createdAt,value
2023-04-09T00:00:44.361Z,53.50
2023-04-09T00:03:11.464Z,52.25
2023-04-09T00:05:41.553Z,51.25
2023-04-09T00:08:08.404Z,46.25
2023-04-09T00:10:35.284Z,53.25
2023-04-09T00:13:02.222Z,51.75
2023-04-09T00:15:31.519Z,48.50
2023-04-09T00:17:59.666Z,48.00
2023-04-09T00:20:26.554Z,47.25
2023-04-09T00:22:54.152Z,53.25
2023-04-09T00:25:21.150Z,50.75
2023-04-09T00:27:48.022Z,53.50
2023-04-09T00:30:14.911Z,56.00
2023-04-09T00:32:42.164Z,50.25
2023-04-09T00:35:09.369Z,53.25
2023-04-09T00:37:36.223Z,50.25
2023-04-09T00:40:03.730Z,47.25
2023-04-09T00:42:34.632Z,48.00
2023-04-09T00:45:01.667Z,55.75
2023-04-09T00:47:30.096Z,51.75
2023-04-09T00:49:57.598Z,54.00
2023-04-09T00:52:26.568Z,46.00
2023-04-09T00:54:54.876Z,46.75
2023-04-09T00:57:21.821Z,46.75
2023-04-09T00:59:48.709Z,50.75
2023-04-09T01:02:15.729Z,54.75
2023-04-09T01:04:43.809Z,53.25
2023-04-09T01:07:36.677Z,47.25
2023-04-09T01:10:20.188Z,51.25
2023-04-09T01:13:08.749Z,51.00
2023-04-09T01:15:44.183Z,51.50
2023-04-09T01:18:23.593Z,50.25
2023-04-09T01:21:05.573Z,47.00
2023-04-09T01:23:44.522Z,51.25
2023-04-09T01:26:50.243Z,52.00
2023-04-09T01:29:20.073Z,47.75
2023-04-09T01:31:49.573Z,49.75
2023-04-09T01:34:17.991Z,52.50
2023-04-09T01:36:54.440Z,53.00
2023-04-09T01:39:21.807Z,48.75
2023-04-09T01:41:52.893Z,52.00
2023-04-09T01:44:20.921Z,50.25
2023-04-09T01:46:48.648Z,50.75
2023-04-09T01:49:16.472Z,51.25
2023-04-09T01:51:43.914Z,43.50
2023-04-09T01:54:10.757Z,51.00
2023-04-09T01:56:45.127Z,49.50
2023-04-09T01:59:12.567Z,47.75
2023-04-09T02:01:46.483Z,49.00
2023-04-09T02:04:28.957Z,50.50
2023-04-09T02:07:16.285Z,50.00
2023-04-09T02:09:47.881Z,52.75
2023-04-09T02:12:18.150Z,53.00
2023-04-09T02:14:51.825Z,46.50
2023-04-09T02:17:19.552Z,50.75
2023-04-09T02:19:48.293Z,51.00
2023-04-09T02:22:16.878Z,52.75
2023-04-09T02:24:43.950Z,50.50
2023-04-09T02:27:11.229Z,51.25
2023-04-09T02:29:41.748Z,47.50
2023-04-09T02:32:08.819Z,50.00
2023-04-09T02:34:35.603Z,52.00
2023-04-09T02:37:02.759Z,48.00
2023-04-09T02:39:29.551Z,43.50
2023-04-09T02:41:56.427Z,48.75
2023-04-09T02:44:23.569Z,46.25
2023-04-09T02:46:51.931Z,49.50
2023-04-09T02:49:19.226Z,48.00
2023-04-09T02:51:45.999Z,50.75
2023-04-09T02:54:12.890Z,48.75
2023-04-09T02:56:39.632Z,48.25
2023-04-09T02:59:06.435Z,46.00
2023-04-09T03:01:33.332Z,47.25
2023-04-09T03:04:01.640Z,49.25
2023-04-09T03:06:28.820Z,48.50
2023-04-09T03:08:55.660Z,45.50
2023-04-09T03:11:22.755Z,49.75
2023-04-09T03:13:49.674Z,47.50
2023-04-09T03:16:16.530Z,47.25
2023-04-09T03:18:43.325Z,49.00
2023-04-09T03:21:11.275Z,49.00
2023-04-09T03:23:45.962Z,44.00
2023-04-09T03:26:12.775Z,51.00
2023-04-09T03:28:45.429Z,47.25
2023-04-09T03:31:14.141Z,46.25
2023-04-09T03:33:42.333Z,59.25
2023-04-09T03:36:10.209Z,47.00
2023-04-09T03:38:54.775Z,52.00
2023-04-09T03:41:27.745Z,45.25
2023-04-09T03:43:56.541Z,50.00
2023-04-09T03:46:26.997Z,50.50
2023-04-09T03:48:55.125Z,52.25
2023-04-09T03:51:25.707Z,47.75
2023-04-09T03:53:56.424Z,53.50
2023-04-09T03:56:23.252Z,56.25
2023-04-09T03:58:50.376Z,47.75
2023-04-09T04:01:20.041Z,53.25
2023-04-09T04:03:55.428Z,46.50
2023-04-09T04:06:24.206Z,53.25
2023-04-09T04:09:17.165Z,53.25
2023-04-09T04:11:50.030Z,52.00
2023-04-09T04:14:18.368Z,47.50
2023-04-09T04:16:51.072Z,46.50
2023-04-09T04:19:21.211Z,51.25
2023-04-09T04:21:50.953Z,50.25
2023-04-09T04:24:17.885Z,53.00
2023-04-09T04:26:44.868Z,53.25
2023-04-09T04:29:14.551Z,53.00
2023-04-09T04:31:53.385Z,48.00
2023-04-09T04:34:22.489Z,54.50
2023-04-09T04:36:57.322Z,55.25
2023-04-09T04:39:24.626Z,58.00
2023-04-09T04:41:57.309Z,56.00
2023-04-09T04:44:27.059Z,58.25
2023-04-09T04:47:03.078Z,49.50
2023-04-09T04:49:30.393Z,50.25
2023-04-09T04:51:57.670Z,52.50
2023-04-09T04:54:24.904Z,49.75
2023-04-09T04:56:56.214Z,53.00
2023-04-09T04:59:38.913Z,51.00
2023-04-09T05:02:07.874Z,49.75
2023-04-09T05:04:53.061Z,48.50
2023-04-09T05:07:24.832Z,52.75
2023-04-09T05:09:54.695Z,51.75
2023-04-09T05:12:21.420Z,52.25
2023-04-09T05:14:51.388Z,55.50
2023-04-09T05:17:18.252Z,53.25
2023-04-09T05:19:51.751Z,51.00
2023-04-09T05:22:21.703Z,54.25
2023-04-09T05:24:48.805Z,50.50
2023-04-09T05:27:16.122Z,50.50
2023-04-09T05:29:42.955Z,53.75
2023-04-09T05:32:10.268Z,51.00
2023-04-09T05:34:39.792Z,59.25
2023-04-09T05:37:06.627Z,51.75
2023-04-09T05:39:34.333Z,55.50
2023-04-09T05:42:01.841Z,56.25
2023-04-09T05:44:39.134Z,53.25
2023-04-09T05:47:11.116Z,57.00
2023-04-09T05:49:47.192Z,61.25
2023-04-09T05:52:17.117Z,51.25
2023-04-09T05:54:44.212Z,50.50
2023-04-09T05:57:12.176Z,54.50
2023-04-09T05:59:43.186Z,53.50
2023-04-09T06:02:10.069Z,52.00
2023-04-09T06:04:36.986Z,54.75
2023-04-09T06:07:03.837Z,55.25
2023-04-09T06:09:30.718Z,52.50
2023-04-09T06:11:57.952Z,54.00
2023-04-09T06:14:25.169Z,49.25
2023-04-09T06:16:51.944Z,51.50
2023-04-09T06:19:19.141Z,51.25
2023-04-09T06:21:46.492Z,54.25
2023-04-09T06:24:13.378Z,54.00
2023-04-09T06:26:40.407Z,53.50
2023-04-09T06:29:07.973Z,54.50
2023-04-09T06:31:34.808Z,55.00
2023-04-09T06:34:02.075Z,62.00
2023-04-09T06:36:29.252Z,56.50
2023-04-09T06:38:56.697Z,51.75
2023-04-09T06:41:24.038Z,56.75
2023-04-09T06:43:51.633Z,58.25
2023-04-09T06:46:20.440Z,54.00
2023-04-09T06:48:47.677Z,50.00
2023-04-09T06:51:15.254Z,55.00
2023-04-09T06:53:42.824Z,56.00
2023-04-09T06:56:09.700Z,59.50
2023-04-09T06:58:36.766Z,54.75
2023-04-09T07:01:03.972Z,54.00
2023-04-09T07:03:31.305Z,50.75
2023-04-09T07:05:58.986Z,54.50
2023-04-09T07:08:26.028Z,56.00
2023-04-09T07:10:53.021Z,53.00
2023-04-09T07:13:19.826Z,57.50
2023-04-09T07:15:46.611Z,53.00
2023-04-09T07:18:13.424Z,56.25
2023-04-09T07:20:40.298Z,56.00
2023-04-09T07:23:07.074Z,60.75
2023-04-09T07:25:34.443Z,57.75
2023-04-09T07:28:01.785Z,80.25
2023-04-09T07:30:28.591Z,58.75
2023-04-09T07:32:56.118Z,56.25
2023-04-09T07:35:22.863Z,57.50
2023-04-09T07:37:49.870Z,54.75
2023-04-09T07:40:16.966Z,59.75
2023-04-09T07:42:45.032Z,65.00
2023-04-09T07:45:11.970Z,65.50
2023-04-09T07:47:40.920Z,63.00
2023-04-09T07:50:08.761Z,46.75
2023-04-09T07:52:35.712Z,54.00
2023-04-09T07:55:02.868Z,54.25
2023-04-09T07:57:33.089Z,56.00
2023-04-09T08:00:00.266Z,51.00
2023-04-09T08:02:27.555Z,48.25
2023-04-09T08:04:54.779Z,50.75
2023-04-09T08:07:21.739Z,54.25
2023-04-09T08:09:48.699Z,53.00
2023-04-09T08:12:15.654Z,50.00
2023-04-09T08:14:43.978Z,54.00
2023-04-09T08:17:10.947Z,49.25
2023-04-09T08:19:39.822Z,51.75
2023-04-09T08:22:08.152Z,54.25
2023-04-09T08:24:35.532Z,51.00
2023-04-09T08:27:02.598Z,51.25
2023-04-09T08:29:29.420Z,52.25
2023-04-09T08:31:56.476Z,53.25
2023-04-09T08:34:23.495Z,57.25
2023-04-09T08:36:50.692Z,56.50
2023-04-09T08:39:21.009Z,51.50
2023-04-09T08:41:48.481Z,52.50
2023-04-09T08:44:15.596Z,54.50
2023-04-09T08:46:43.035Z,54.25
2023-04-09T08:49:10.915Z,54.00
2023-04-09T08:51:37.831Z,52.25
2023-04-09T08:54:05.153Z,46.25
2023-04-09T08:56:32.373Z,51.25
2023-04-09T08:58:59.364Z,53.00
2023-04-09T09:01:27.314Z,54.00
2023-04-09T09:04:08.648Z,48.00
2023-04-09T09:06:41.709Z,52.75
2023-04-09T09:09:16.843Z,53.00
2023-04-09T09:11:48.700Z,48.67
2023-04-09T09:14:17.933Z,48.00
2023-04-09T09:17:04.058Z,49.67
2023-04-09T09:19:33.664Z,50.67
2023-04-09T09:22:05.208Z,48.67
2023-04-09T09:24:35.632Z,41.50
2023-04-09T09:27:03.118Z,48.25
2023-04-09T09:29:30.143Z,43.25
2023-04-09T09:31:57.058Z,41.00
2023-04-09T09:34:26.047Z,51.00
2023-04-09T09:36:52.952Z,62.75
2023-04-09T09:39:20.177Z,45.75
2023-04-09T09:41:47.452Z,40.75
2023-04-09T09:44:32.881Z,44.75
2023-04-09T09:47:00.759Z,41.50
2023-04-09T09:49:27.625Z,48.00
2023-04-09T09:51:59.536Z,43.50
2023-04-09T09:54:36.660Z,46.25
2023-04-09T09:57:07.726Z,48.50
2023-04-09T09:59:39.043Z,45.00
2023-04-09T10:02:07.695Z,43.50
2023-04-09T10:04:36.153Z,48.00
2023-04-09T10:07:05.862Z,39.75
2023-04-09T10:09:35.859Z,46.75
2023-04-09T10:12:06.890Z,44.00
2023-04-09T10:14:36.090Z,49.50
2023-04-09T10:17:04.521Z,47.00
2023-04-09T10:19:35.749Z,48.00
2023-04-09T10:22:12.460Z,40.00
2023-04-09T10:24:40.092Z,43.25
2023-04-09T10:27:16.429Z,38.00
2023-04-09T10:29:48.556Z,48.75
2023-04-09T10:32:23.782Z,44.00
2023-04-09T10:34:51.104Z,45.25
2023-04-09T10:37:26.428Z,45.00
2023-04-09T10:39:53.980Z,46.00
2023-04-09T10:42:42.078Z,53.00
2023-04-09T10:45:14.962Z,53.75
2023-04-09T10:47:43.788Z,44.25
2023-04-09T10:50:18.152Z,51.00
2023-04-09T10:52:45.584Z,47.00
2023-04-09T10:55:42.053Z,49.50
2023-04-09T10:58:12.699Z,43.75
2023-04-09T11:00:43.170Z,42.75
2023-04-09T11:03:23.765Z,49.25
2023-04-09T11:06:10.296Z,48.25
2023-04-09T11:08:39.082Z,45.00
2023-04-09T11:11:06.527Z,47.75
2023-04-09T11:13:34.442Z,44.00
2023-04-09T11:16:04.332Z,40.50
2023-04-09T11:18:31.432Z,42.00
2023-04-09T11:21:00.976Z,35.75
2023-04-09T11:23:33.060Z,45.25
2023-04-09T11:26:00.106Z,48.75
2023-04-09T11:28:27.356Z,48.00
2023-04-09T11:30:54.396Z,45.75
2023-04-09T11:33:21.683Z,48.00
2023-04-09T11:35:49.131Z,37.25
2023-04-09T11:38:16.166Z,46.25
2023-04-09T11:40:51.567Z,50.00
2023-04-09T11:43:21.476Z,55.50
2023-04-09T11:45:57.532Z,45.50
2023-04-09T11:48:26.530Z,43.25
2023-04-09T11:50:54.986Z,42.25
2023-04-09T11:53:24.792Z,48.00
2023-04-09T11:55:54.892Z,48.50
2023-04-09T11:58:25.247Z,47.00
2023-04-09T12:00:58.026Z,41.00
2023-04-09T12:03:33.472Z,46.00
2023-04-09T12:06:03.035Z,44.75
2023-04-09T12:08:31.255Z,48.50
2023-04-09T12:11:15.532Z,46.25
2023-04-09T12:13:45.664Z,52.50
2023-04-09T12:16:13.328Z,47.00
2023-04-09T12:18:40.539Z,42.50
2023-04-09T12:21:07.609Z,38.00
2023-04-09T12:23:35.117Z,41.00
2023-04-09T12:26:02.472Z,44.50
2023-04-09T12:28:29.447Z,44.75
2023-04-09T12:30:56.835Z,55.00
2023-04-09T12:33:23.804Z,46.00
2023-04-09T12:35:51.134Z,44.25
2023-04-09T12:38:18.009Z,46.00
2023-04-09T12:40:45.464Z,45.00
2023-04-09T12:43:12.256Z,49.25
2023-04-09T12:45:39.293Z,49.25
2023-04-09T12:48:06.498Z,46.25
2023-04-09T12:50:33.460Z,46.50
2023-04-09T12:53:00.428Z,45.75
2023-04-09T12:55:28.045Z,50.75
2023-04-09T12:57:54.904Z,50.00
2023-04-09T13:00:21.749Z,52.25
2023-04-09T13:02:48.740Z,52.50
2023-04-09T13:05:15.845Z,43.50
2023-04-09T13:07:43.602Z,45.25
2023-04-09T13:10:10.831Z,44.25
2023-04-09T13:12:37.782Z,43.50
2023-04-09T13:15:05.099Z,45.75
2023-04-09T13:17:32.052Z,46.00
2023-04-09T13:19:58.897Z,48.00
2023-04-09T13:22:25.746Z,45.00
2023-04-09T13:24:52.778Z,53.00
2023-04-09T13:27:19.809Z,53.75
2023-04-09T13:29:46.682Z,54.75
2023-04-09T13:32:13.614Z,45.00
2023-04-09T13:34:40.915Z,72.00
2023-04-09T13:37:08.070Z,41.25
2023-04-09T13:39:35.425Z,48.25
2023-04-09T13:42:07.247Z,46.75
2023-04-09T13:44:37.121Z,54.50
2023-04-09T13:47:03.961Z,47.50
2023-04-09T13:49:31.047Z,53.00
2023-04-09T13:51:58.019Z,52.50
2023-04-09T13:54:24.916Z,51.75
2023-04-09T13:56:51.895Z,47.25
2023-04-09T13:59:19.202Z,47.75
2023-04-09T14:01:46.159Z,53.75
2023-04-09T14:04:13.160Z,41.00
2023-04-09T14:06:40.083Z,46.75
2023-04-09T14:09:06.941Z,49.50
2023-04-09T14:11:33.775Z,50.50
2023-04-09T14:14:00.721Z,54.00
2023-04-09T14:16:28.321Z,45.00
2023-04-09T14:18:55.672Z,46.00
2023-04-09T14:21:22.864Z,50.00
2023-04-09T14:23:49.779Z,52.75
2023-04-09T14:26:17.004Z,51.25
2023-04-09T14:28:44.969Z,53.25
2023-04-09T14:31:11.890Z,54.25
2023-04-09T14:33:38.665Z,78.75
2023-04-09T14:36:06.275Z,55.00
2023-04-09T14:38:33.924Z,47.00
2023-04-09T14:41:00.889Z,51.25
2023-04-09T14:43:27.715Z,51.00
2023-04-09T14:45:54.512Z,48.75
2023-04-09T14:48:21.434Z,84.25
2023-04-09T14:50:48.380Z,50.75
2023-04-09T14:53:15.151Z,49.00
2023-04-09T14:55:41.974Z,62.25
2023-04-09T14:58:08.994Z,50.50
2023-04-09T15:00:36.221Z,45.50
2023-04-09T15:03:04.090Z,53.00
2023-04-09T15:05:31.182Z,55.00
2023-04-09T15:07:58.039Z,53.75
2023-04-09T15:10:25.049Z,47.50
2023-04-09T15:12:51.871Z,44.00
2023-04-09T15:15:18.684Z,48.50
2023-04-09T15:17:45.476Z,51.00
2023-04-09T15:20:13.900Z,72.00
2023-04-09T15:22:40.937Z,50.50
2023-04-09T15:25:07.872Z,51.25
2023-04-09T15:27:34.971Z,48.25
2023-04-09T15:30:02.061Z,57.50
2023-04-09T15:32:30.923Z,46.50
2023-04-09T15:34:57.987Z,54.50
2023-04-09T15:37:24.780Z,59.75
2023-04-09T15:39:51.626Z,58.00
2023-04-09T15:42:22.702Z,54.50
2023-04-09T15:44:50.598Z,57.50
2023-04-09T15:47:17.649Z,58.75
2023-04-09T15:49:44.785Z,42.00
2023-04-09T15:52:11.759Z,53.75
2023-04-09T15:54:38.734Z,52.75
2023-04-09T15:57:05.558Z,52.75
2023-04-09T15:59:32.406Z,54.75
2023-04-09T16:01:59.303Z,53.75
2023-04-09T16:04:27.021Z,52.75
2023-04-09T16:06:55.478Z,53.50
2023-04-09T16:09:22.912Z,61.50
2023-04-09T16:11:51.126Z,65.25
2023-04-09T16:14:18.140Z,65.50
2023-04-09T16:16:49.656Z,74.00
2023-04-09T16:19:18.064Z,54.00
2023-04-09T16:21:45.671Z,68.50
2023-04-09T16:24:13.274Z,52.00
2023-04-09T16:26:42.248Z,76.25
2023-04-09T16:29:09.493Z,70.75
2023-04-09T16:31:37.574Z,57.00
2023-04-09T16:34:05.627Z,64.75
2023-04-09T16:36:33.728Z,50.75
2023-04-09T16:39:00.524Z,51.00
2023-04-09T16:41:27.338Z,55.00
2023-04-09T16:43:54.128Z,60.75
2023-04-09T16:46:21.157Z,56.00
2023-04-09T16:48:48.025Z,51.50
2023-04-09T16:51:14.926Z,53.25
2023-04-09T16:53:41.727Z,49.00
2023-04-09T16:56:08.820Z,53.00
2023-04-09T16:58:35.669Z,52.50
2023-04-09T17:01:02.552Z,49.50
2023-04-09T17:03:29.777Z,54.25
2023-04-09T17:05:57.357Z,56.25
2023-04-09T17:08:24.546Z,49.00
2023-04-09T17:10:52.234Z,55.25
2023-04-09T17:13:19.087Z,56.25
2023-04-09T17:15:45.945Z,53.00
2023-04-09T17:18:12.807Z,57.50
2023-04-09T17:20:39.595Z,57.00
2023-04-09T17:23:06.749Z,61.50
2023-04-09T17:25:33.483Z,77.50
2023-04-09T17:28:01.728Z,64.25
2023-04-09T17:30:28.530Z,62.50
2023-04-09T17:32:55.419Z,55.50
2023-04-09T17:35:22.356Z,57.25
2023-04-09T17:37:49.216Z,56.00
2023-04-09T17:40:18.585Z,55.50
2023-04-09T17:42:45.646Z,53.00
2023-04-09T17:45:13.121Z,59.75
2023-04-09T17:47:40.772Z,63.75
2023-04-09T17:50:08.325Z,53.25
2023-04-09T17:52:38.861Z,53.50
2023-04-09T17:55:07.627Z,57.75
2023-04-09T17:57:35.821Z,70.50
2023-04-09T18:00:04.178Z,65.50
2023-04-09T18:02:32.680Z,59.50
2023-04-09T18:05:04.507Z,57.75
2023-04-09T18:07:34.065Z,59.50
2023-04-09T18:10:04.016Z,52.25
2023-04-09T18:12:30.862Z,53.00
2023-04-09T18:14:57.673Z,49.25
2023-04-09T18:17:26.372Z,51.75
2023-04-09T18:19:58.406Z,56.00
2023-04-09T18:22:27.030Z,61.50
2023-04-09T18:24:54.199Z,61.25
2023-04-09T18:27:21.678Z,53.00
2023-04-09T18:29:49.540Z,53.75
2023-04-09T18:32:17.130Z,54.50
2023-04-09T18:34:45.130Z,54.00
2023-04-09T18:37:12.308Z,66.75
2023-04-09T18:39:39.068Z,62.25
2023-04-09T18:42:05.813Z,72.75
2023-04-09T18:44:36.277Z,62.75
2023-04-09T18:47:09.201Z,64.75
2023-04-09T18:49:36.314Z,74.25
2023-04-09T18:52:09.164Z,54.00
2023-04-09T18:54:37.278Z,59.25
2023-04-09T18:57:04.384Z,71.00
2023-04-09T18:59:33.515Z,62.00
2023-04-09T19:02:06.501Z,107.50
2023-04-09T19:04:36.592Z,72.00
2023-04-09T19:07:04.019Z,144.50
2023-04-09T19:09:34.982Z,159.50
2023-04-09T19:12:02.199Z,140.50
2023-04-09T19:14:29.115Z,120.75
2023-04-09T19:16:57.196Z,101.50
2023-04-09T19:19:24.027Z,118.25
2023-04-09T19:21:50.886Z,107.50
2023-04-09T19:24:17.721Z,101.00
2023-04-09T19:26:44.587Z,93.50
2023-04-09T19:29:11.445Z,101.25
2023-04-09T19:31:38.499Z,104.50
2023-04-09T19:34:06.216Z,107.25
2023-04-09T19:36:34.074Z,101.50
2023-04-09T19:39:01.289Z,107.00
2023-04-09T19:41:28.556Z,103.25
2023-04-09T19:43:55.472Z,104.00
2023-04-09T19:46:22.469Z,117.50
2023-04-09T19:48:49.243Z,116.50
2023-04-09T19:51:17.753Z,130.25
2023-04-09T19:53:46.922Z,124.00
2023-04-09T19:56:14.160Z,110.00
2023-04-09T19:58:42.387Z,107.25
2023-04-09T20:01:10.004Z,92.50
2023-04-09T20:03:37.253Z,96.25
2023-04-09T20:06:09.429Z,83.50
2023-04-09T20:08:37.876Z,92.25
2023-04-09T20:11:05.116Z,85.00
2023-04-09T20:13:32.010Z,88.25
2023-04-09T20:15:58.986Z,88.50
2023-04-09T20:18:25.910Z,89.25
2023-04-09T20:20:53.102Z,80.00
2023-04-09T20:23:20.457Z,77.50
2023-04-09T20:25:47.834Z,74.25
2023-04-09T20:28:14.815Z,82.50
2023-04-09T20:30:42.906Z,80.75
2023-04-09T20:33:09.921Z,87.75
2023-04-09T20:35:36.880Z,90.00
2023-04-09T20:38:10.142Z,88.50
2023-04-09T20:40:37.646Z,97.50
2023-04-09T20:43:04.659Z,95.75
2023-04-09T20:45:34.496Z,127.50
2023-04-09T20:48:03.456Z,107.00
2023-04-09T20:50:31.117Z,125.25
2023-04-09T20:53:01.182Z,196.00
2023-04-09T20:55:28.326Z,113.75
2023-04-09T20:57:58.448Z,114.00
2023-04-09T21:00:25.493Z,129.25
2023-04-09T21:02:52.444Z,152.50
2023-04-09T21:05:23.972Z,136.50
2023-04-09T21:07:52.693Z,112.75
2023-04-09T21:10:20.058Z,121.25
2023-04-09T21:12:46.985Z,115.75
2023-04-09T21:15:14.569Z,113.00
2023-04-09T21:17:41.433Z,94.00
2023-04-09T21:20:08.888Z,99.50
2023-04-09T21:22:36.077Z,118.75
2023-04-09T21:25:03.522Z,119.25
2023-04-09T21:27:31.289Z,117.25
2023-04-09T21:29:58.185Z,96.25
2023-04-09T21:32:25.817Z,93.50
2023-04-09T21:34:53.571Z,81.25
2023-04-09T21:37:20.510Z,86.50
2023-04-09T21:39:48.810Z,81.00
2023-04-09T21:42:16.910Z,84.25
2023-04-09T21:44:43.821Z,88.00
2023-04-09T21:47:12.252Z,81.50
2023-04-09T21:49:40.573Z,89.25
2023-04-09T21:52:14.337Z,90.50
2023-04-09T21:54:42.545Z,81.25
2023-04-09T21:57:09.997Z,90.00
2023-04-09T21:59:37.683Z,93.50
2023-04-09T22:02:05.179Z,96.75
2023-04-09T22:04:32.261Z,91.50
2023-04-09T22:06:59.435Z,83.75
2023-04-09T22:09:26.473Z,84.25
2023-04-09T22:11:53.759Z,90.25
2023-04-09T22:14:24.131Z,91.50
2023-04-09T22:16:52.049Z,85.75
2023-04-09T22:19:19.488Z,85.25
2023-04-09T22:21:49.882Z,88.75
2023-04-09T22:24:18.344Z,106.00
2023-04-09T22:26:46.732Z,88.50
2023-04-09T22:29:14.297Z,87.25
2023-04-09T22:31:42.033Z,89.00
2023-04-09T22:34:20.129Z,85.75
2023-04-09T22:36:48.583Z,76.50
2023-04-09T22:39:15.970Z,80.00
2023-04-09T22:41:43.029Z,85.75
2023-04-09T22:44:09.989Z,63.25
2023-04-09T22:46:37.337Z,75.50
2023-04-09T22:49:05.425Z,62.50
2023-04-09T22:51:34.764Z,70.50
2023-04-09T22:54:02.271Z,74.00
2023-04-09T22:56:31.640Z,70.00
2023-04-09T22:58:58.648Z,71.75
2023-04-09T23:01:25.641Z,73.75
2023-04-09T23:03:52.563Z,70.00
2023-04-09T23:06:19.552Z,76.25
2023-04-09T23:08:46.816Z,60.75
2023-04-09T23:11:13.768Z,60.00
2023-04-09T23:13:40.630Z,61.50
2023-04-09T23:16:09.202Z,68.00
2023-04-09T23:18:36.363Z,61.50
2023-04-09T23:21:12.020Z,60.25
2023-04-09T23:23:39.404Z,56.25
2023-04-09T23:26:06.797Z,55.50
2023-04-09T23:28:33.596Z,54.75
2023-04-09T23:31:00.671Z,56.00
2023-04-09T23:33:27.626Z,54.00
2023-04-09T23:35:54.486Z,54.50
2023-04-09T23:38:21.431Z,51.75
2023-04-09T23:40:48.819Z,55.00
2023-04-09T23:43:16.041Z,52.00
2023-04-09T23:45:43.835Z,53.50
2023-04-09T23:48:11.798Z,56.00
2023-04-09T23:50:39.817Z,50.25
2023-04-09T23:53:06.698Z,55.00
2023-04-09T23:55:37.939Z,51.00
2023-04-09T23:58:05.475Z,53.50
